sensor_id;sensor_type;location;lat;lon;timestamp;temperature;humidity
64062;DHT22;50308;47.438;-1.528;2023-07-13T00:00:19;19.70;70.30
64062;DHT22;50308;47.438;-1.528;2023-07-13T00:02:46;19.80;70.30
64062;DHT22;50308;47.438;-1.528;2023-07-13T00:05:11;19.70;70.10
64062;DHT22;50308;47.438;-1.528;2023-07-13T00:07:37;19.70;70.20
64062;DHT22;50308;47.438;-1.528;2023-07-13T00:10:03;19.70;70.30
64062;DHT22;50308;47.438;-1.528;2023-07-13T00:12:37;19.60;70.30
64062;DHT22;50308;47.438;-1.528;2023-07-13T00:15:07;19.50;70.50
64062;DHT22;50308;47.438;-1.528;2023-07-13T00:17:35;19.50;70.30
64062;DHT22;50308;47.438;-1.528;2023-07-13T00:20:00;19.50;70.30
64062;DHT22;50308;47.438;-1.528;2023-07-13T00:22:26;19.40;70.50
64062;DHT22;50308;47.438;-1.528;2023-07-13T00:24:53;19.40;70.80
64062;DHT22;50308;47.438;-1.528;2023-07-13T00:27:21;19.40;70.50
64062;DHT22;50308;47.438;-1.528;2023-07-13T00:29:46;19.40;70.60
64062;DHT22;50308;47.438;-1.528;2023-07-13T00:32:12;19.40;70.50
64062;DHT22;50308;47.438;-1.528;2023-07-13T00:34:39;19.30;70.50
64062;DHT22;50308;47.438;-1.528;2023-07-13T00:37:06;19.30;70.40
64062;DHT22;50308;47.438;-1.528;2023-07-13T00:39:33;19.30;70.50
64062;DHT22;50308;47.438;-1.528;2023-07-13T00:42:00;19.30;70.40
64062;DHT22;50308;47.438;-1.528;2023-07-13T00:44:26;19.20;70.70
64062;DHT22;50308;47.438;-1.528;2023-07-13T00:46:52;19.20;70.80
64062;DHT22;50308;47.438;-1.528;2023-07-13T00:49:20;19.20;71.00
64062;DHT22;50308;47.438;-1.528;2023-07-13T00:51:53;19.20;71.90
64062;DHT22;50308;47.438;-1.528;2023-07-13T00:54:26;19.10;70.90
64062;DHT22;50308;47.438;-1.528;2023-07-13T00:56:56;19.10;70.90
64062;DHT22;50308;47.438;-1.528;2023-07-13T00:59:24;19.10;70.70
64062;DHT22;50308;47.438;-1.528;2023-07-13T01:01:49;19.00;70.80
64062;DHT22;50308;47.438;-1.528;2023-07-13T01:04:16;19.00;71.10
64062;DHT22;50308;47.438;-1.528;2023-07-13T01:06:42;19.00;71.00
64062;DHT22;50308;47.438;-1.528;2023-07-13T01:09:10;19.00;71.00
64062;DHT22;50308;47.438;-1.528;2023-07-13T01:11:37;18.90;71.20
64062;DHT22;50308;47.438;-1.528;2023-07-13T01:14:03;18.90;71.30
64062;DHT22;50308;47.438;-1.528;2023-07-13T01:16:31;18.90;71.10
64062;DHT22;50308;47.438;-1.528;2023-07-13T01:18:59;18.80;71.00
64062;DHT22;50308;47.438;-1.528;2023-07-13T01:21:27;18.90;71.10
64062;DHT22;50308;47.438;-1.528;2023-07-13T01:23:53;18.80;71.30
64062;DHT22;50308;47.438;-1.528;2023-07-13T01:26:19;18.80;71.50
64062;DHT22;50308;47.438;-1.528;2023-07-13T01:28:45;18.80;71.50
64062;DHT22;50308;47.438;-1.528;2023-07-13T01:31:11;18.80;71.50
64062;DHT22;50308;47.438;-1.528;2023-07-13T01:33:39;18.80;71.40
64062;DHT22;50308;47.438;-1.528;2023-07-13T01:36:09;18.80;71.50
64062;DHT22;50308;47.438;-1.528;2023-07-13T01:38:36;18.80;71.30
64062;DHT22;50308;47.438;-1.528;2023-07-13T01:41:02;18.70;71.60
64062;DHT22;50308;47.438;-1.528;2023-07-13T01:43:28;18.70;71.60
64062;DHT22;50308;47.438;-1.528;2023-07-13T01:45:54;18.70;71.60
64062;DHT22;50308;47.438;-1.528;2023-07-13T01:48:20;18.70;71.40
64062;DHT22;50308;47.438;-1.528;2023-07-13T01:50:46;18.70;71.40
64062;DHT22;50308;47.438;-1.528;2023-07-13T01:53:12;18.60;71.60
64062;DHT22;50308;47.438;-1.528;2023-07-13T01:55:38;18.60;71.40
64062;DHT22;50308;47.438;-1.528;2023-07-13T01:58:04;18.50;71.70
64062;DHT22;50308;47.438;-1.528;2023-07-13T02:00:29;18.50;71.90
64062;DHT22;50308;47.438;-1.528;2023-07-13T02:02:55;18.60;71.70
64062;DHT22;50308;47.438;-1.528;2023-07-13T02:05:21;18.60;71.70
64062;DHT22;50308;47.438;-1.528;2023-07-13T02:07:47;18.50;71.60
64062;DHT22;50308;47.438;-1.528;2023-07-13T02:10:13;18.50;71.60
64062;DHT22;50308;47.438;-1.528;2023-07-13T02:12:39;18.50;72.00
64062;DHT22;50308;47.438;-1.528;2023-07-13T02:15:06;18.50;71.50
64062;DHT22;50308;47.438;-1.528;2023-07-13T02:17:32;18.40;71.60
64062;DHT22;50308;47.438;-1.528;2023-07-13T02:19:57;18.50;71.60
64062;DHT22;50308;47.438;-1.528;2023-07-13T02:22:23;18.40;71.30
64062;DHT22;50308;47.438;-1.528;2023-07-13T02:24:49;18.40;71.50
64062;DHT22;50308;47.438;-1.528;2023-07-13T02:27:15;18.40;71.50
64062;DHT22;50308;47.438;-1.528;2023-07-13T02:29:41;18.40;71.40
64062;DHT22;50308;47.438;-1.528;2023-07-13T02:32:07;18.30;71.70
64062;DHT22;50308;47.438;-1.528;2023-07-13T02:34:34;18.30;71.50
64062;DHT22;50308;47.438;-1.528;2023-07-13T02:36:59;18.30;71.50
64062;DHT22;50308;47.438;-1.528;2023-07-13T02:39:25;18.30;71.60
64062;DHT22;50308;47.438;-1.528;2023-07-13T02:41:51;18.20;71.70
64062;DHT22;50308;47.438;-1.528;2023-07-13T02:44:16;18.20;71.50
64062;DHT22;50308;47.438;-1.528;2023-07-13T02:46:42;18.10;71.40
64062;DHT22;50308;47.438;-1.528;2023-07-13T02:49:08;18.10;71.50
64062;DHT22;50308;47.438;-1.528;2023-07-13T02:51:34;18.00;71.50
64062;DHT22;50308;47.438;-1.528;2023-07-13T02:54:01;18.10;71.60
64062;DHT22;50308;47.438;-1.528;2023-07-13T02:56:29;18.10;71.60
64062;DHT22;50308;47.438;-1.528;2023-07-13T02:58:54;18.10;71.70
64062;DHT22;50308;47.438;-1.528;2023-07-13T03:01:21;18.10;71.50
64062;DHT22;50308;47.438;-1.528;2023-07-13T03:03:47;18.00;71.60
64062;DHT22;50308;47.438;-1.528;2023-07-13T03:06:14;18.00;71.60
64062;DHT22;50308;47.438;-1.528;2023-07-13T03:08:40;18.00;71.90
64062;DHT22;50308;47.438;-1.528;2023-07-13T03:11:09;18.00;71.80
64062;DHT22;50308;47.438;-1.528;2023-07-13T03:13:37;18.10;72.00
64062;DHT22;50308;47.438;-1.528;2023-07-13T03:16:03;18.10;71.90
64062;DHT22;50308;47.438;-1.528;2023-07-13T03:18:29;18.10;71.70
64062;DHT22;50308;47.438;-1.528;2023-07-13T03:20:55;18.10;71.50
64062;DHT22;50308;47.438;-1.528;2023-07-13T03:23:21;18.10;71.40
64062;DHT22;50308;47.438;-1.528;2023-07-13T03:25:48;18.10;71.60
64062;DHT22;50308;47.438;-1.528;2023-07-13T03:28:14;18.20;71.70
64062;DHT22;50308;47.438;-1.528;2023-07-13T03:30:41;18.20;72.60
64062;DHT22;50308;47.438;-1.528;2023-07-13T03:33:06;18.20;71.60
64062;DHT22;50308;47.438;-1.528;2023-07-13T03:35:33;18.20;71.80
64062;DHT22;50308;47.438;-1.528;2023-07-13T03:37:59;18.30;71.80
64062;DHT22;50308;47.438;-1.528;2023-07-13T03:40:28;18.30;71.90
64062;DHT22;50308;47.438;-1.528;2023-07-13T03:42:54;18.20;71.90
64062;DHT22;50308;47.438;-1.528;2023-07-13T03:45:20;18.20;72.10
64062;DHT22;50308;47.438;-1.528;2023-07-13T03:47:45;18.10;72.30
64062;DHT22;50308;47.438;-1.528;2023-07-13T03:50:11;18.20;72.20
64062;DHT22;50308;47.438;-1.528;2023-07-13T03:52:37;18.10;72.30
64062;DHT22;50308;47.438;-1.528;2023-07-13T03:55:03;18.10;72.50
64062;DHT22;50308;47.438;-1.528;2023-07-13T03:57:29;18.20;72.50
64062;DHT22;50308;47.438;-1.528;2023-07-13T03:59:54;18.20;72.30
64062;DHT22;50308;47.438;-1.528;2023-07-13T04:02:20;18.20;72.50
64062;DHT22;50308;47.438;-1.528;2023-07-13T04:04:46;18.20;72.30
64062;DHT22;50308;47.438;-1.528;2023-07-13T04:07:12;18.20;72.40
64062;DHT22;50308;47.438;-1.528;2023-07-13T04:09:38;18.20;72.50
64062;DHT22;50308;47.438;-1.528;2023-07-13T04:12:04;18.20;72.30
64062;DHT22;50308;47.438;-1.528;2023-07-13T04:14:30;18.30;72.40
64062;DHT22;50308;47.438;-1.528;2023-07-13T04:16:56;18.30;72.50
64062;DHT22;50308;47.438;-1.528;2023-07-13T04:19:21;18.30;72.50
64062;DHT22;50308;47.438;-1.528;2023-07-13T04:21:47;18.30;72.60
64062;DHT22;50308;47.438;-1.528;2023-07-13T04:24:13;18.30;72.80
64062;DHT22;50308;47.438;-1.528;2023-07-13T04:26:39;18.30;73.00
64062;DHT22;50308;47.438;-1.528;2023-07-13T04:29:06;18.30;72.70
64062;DHT22;50308;47.438;-1.528;2023-07-13T04:31:32;18.30;72.90
64062;DHT22;50308;47.438;-1.528;2023-07-13T04:33:58;18.30;72.90
64062;DHT22;50308;47.438;-1.528;2023-07-13T04:36:43;18.30;73.00
64062;DHT22;50308;47.438;-1.528;2023-07-13T04:39:09;18.30;73.20
64062;DHT22;50308;47.438;-1.528;2023-07-13T04:41:35;18.30;73.20
64062;DHT22;50308;47.438;-1.528;2023-07-13T04:44:00;18.40;73.00
64062;DHT22;50308;47.438;-1.528;2023-07-13T04:46:27;18.50;72.90
64062;DHT22;50308;47.438;-1.528;2023-07-13T04:48:53;18.40;73.00
64062;DHT22;50308;47.438;-1.528;2023-07-13T04:51:19;18.50;73.50
64062;DHT22;50308;47.438;-1.528;2023-07-13T04:53:45;18.60;73.30
64062;DHT22;50308;47.438;-1.528;2023-07-13T04:56:11;18.60;73.50
64062;DHT22;50308;47.438;-1.528;2023-07-13T04:58:37;18.60;73.60
64062;DHT22;50308;47.438;-1.528;2023-07-13T05:01:04;18.60;73.50
64062;DHT22;50308;47.438;-1.528;2023-07-13T05:03:30;18.60;73.60
64062;DHT22;50308;47.438;-1.528;2023-07-13T05:06:02;18.60;73.70
64062;DHT22;50308;47.438;-1.528;2023-07-13T05:08:28;18.70;73.80
64062;DHT22;50308;47.438;-1.528;2023-07-13T05:10:54;18.70;73.80
64062;DHT22;50308;47.438;-1.528;2023-07-13T05:13:20;18.80;73.60
64062;DHT22;50308;47.438;-1.528;2023-07-13T05:15:55;18.80;73.90
64062;DHT22;50308;47.438;-1.528;2023-07-13T05:18:21;18.70;74.00
64062;DHT22;50308;47.438;-1.528;2023-07-13T05:20:47;18.70;74.20
64062;DHT22;50308;47.438;-1.528;2023-07-13T05:23:12;18.80;74.20
64062;DHT22;50308;47.438;-1.528;2023-07-13T05:25:38;18.80;74.20
64062;DHT22;50308;47.438;-1.528;2023-07-13T05:28:04;18.80;74.40
64062;DHT22;50308;47.438;-1.528;2023-07-13T05:30:29;18.80;74.40
64062;DHT22;50308;47.438;-1.528;2023-07-13T05:32:55;18.80;74.50
64062;DHT22;50308;47.438;-1.528;2023-07-13T05:35:21;18.80;74.80
64062;DHT22;50308;47.438;-1.528;2023-07-13T05:37:47;18.80;74.80
64062;DHT22;50308;47.438;-1.528;2023-07-13T05:40:12;18.90;74.80
64062;DHT22;50308;47.438;-1.528;2023-07-13T05:42:38;18.90;74.70
64062;DHT22;50308;47.438;-1.528;2023-07-13T05:45:04;18.90;74.80
64062;DHT22;50308;47.438;-1.528;2023-07-13T05:47:30;18.90;74.80
64062;DHT22;50308;47.438;-1.528;2023-07-13T05:49:56;19.00;74.90
64062;DHT22;50308;47.438;-1.528;2023-07-13T05:52:21;18.90;74.90
64062;DHT22;50308;47.438;-1.528;2023-07-13T05:54:47;19.00;75.00
64062;DHT22;50308;47.438;-1.528;2023-07-13T05:57:12;19.00;74.70
64062;DHT22;50308;47.438;-1.528;2023-07-13T05:59:38;19.10;74.90
64062;DHT22;50308;47.438;-1.528;2023-07-13T06:02:04;19.00;74.90
64062;DHT22;50308;47.438;-1.528;2023-07-13T06:04:30;19.10;75.00
64062;DHT22;50308;47.438;-1.528;2023-07-13T06:06:56;19.10;74.90
64062;DHT22;50308;47.438;-1.528;2023-07-13T06:09:21;19.20;74.90
64062;DHT22;50308;47.438;-1.528;2023-07-13T06:11:47;19.20;75.20
64062;DHT22;50308;47.438;-1.528;2023-07-13T06:14:13;19.20;75.10
64062;DHT22;50308;47.438;-1.528;2023-07-13T06:16:40;19.30;75.20
64062;DHT22;50308;47.438;-1.528;2023-07-13T06:19:06;19.30;75.20
64062;DHT22;50308;47.438;-1.528;2023-07-13T06:21:32;19.30;75.20
64062;DHT22;50308;47.438;-1.528;2023-07-13T06:23:57;19.30;75.30
64062;DHT22;50308;47.438;-1.528;2023-07-13T06:26:24;19.30;75.40
64062;DHT22;50308;47.438;-1.528;2023-07-13T06:28:49;19.40;75.40
64062;DHT22;50308;47.438;-1.528;2023-07-13T06:31:15;19.50;75.70
64062;DHT22;50308;47.438;-1.528;2023-07-13T06:33:41;19.50;75.60
64062;DHT22;50308;47.438;-1.528;2023-07-13T06:36:08;19.50;75.80
64062;DHT22;50308;47.438;-1.528;2023-07-13T06:38:34;19.50;75.80
64062;DHT22;50308;47.438;-1.528;2023-07-13T06:41:00;19.50;76.20
64062;DHT22;50308;47.438;-1.528;2023-07-13T06:43:26;19.60;76.20
64062;DHT22;50308;47.438;-1.528;2023-07-13T06:45:55;19.60;75.90
64062;DHT22;50308;47.438;-1.528;2023-07-13T06:48:20;19.70;76.90
64062;DHT22;50308;47.438;-1.528;2023-07-13T06:50:48;19.70;76.00
64062;DHT22;50308;47.438;-1.528;2023-07-13T06:53:15;19.70;76.30
64062;DHT22;50308;47.438;-1.528;2023-07-13T06:55:43;19.70;76.40
64062;DHT22;50308;47.438;-1.528;2023-07-13T06:58:08;19.70;76.50
64062;DHT22;50308;47.438;-1.528;2023-07-13T07:00:34;19.80;76.40
64062;DHT22;50308;47.438;-1.528;2023-07-13T07:03:00;19.70;76.30
64062;DHT22;50308;47.438;-1.528;2023-07-13T07:05:25;19.80;76.70
64062;DHT22;50308;47.438;-1.528;2023-07-13T07:07:54;19.80;76.70
64062;DHT22;50308;47.438;-1.528;2023-07-13T07:10:20;19.90;76.20
64062;DHT22;50308;47.438;-1.528;2023-07-13T07:12:46;19.90;76.70
64062;DHT22;50308;47.438;-1.528;2023-07-13T07:15:13;20.00;76.80
64062;DHT22;50308;47.438;-1.528;2023-07-13T07:17:39;20.00;76.90
64062;DHT22;50308;47.438;-1.528;2023-07-13T07:20:05;20.00;77.80
64062;DHT22;50308;47.438;-1.528;2023-07-13T07:22:31;20.00;76.50
64062;DHT22;50308;47.438;-1.528;2023-07-13T07:24:57;20.00;76.20
64062;DHT22;50308;47.438;-1.528;2023-07-13T07:27:23;20.10;77.20
64062;DHT22;50308;47.438;-1.528;2023-07-13T07:29:49;20.10;76.60
64062;DHT22;50308;47.438;-1.528;2023-07-13T07:32:15;20.10;77.20
64062;DHT22;50308;47.438;-1.528;2023-07-13T07:34:40;20.10;77.20
64062;DHT22;50308;47.438;-1.528;2023-07-13T07:37:06;20.20;77.00
64062;DHT22;50308;47.438;-1.528;2023-07-13T07:39:32;20.20;77.20
64062;DHT22;50308;47.438;-1.528;2023-07-13T07:44:24;20.30;77.20
64062;DHT22;50308;47.438;-1.528;2023-07-13T07:46:50;20.30;77.40
64062;DHT22;50308;47.438;-1.528;2023-07-13T07:49:15;20.30;76.40
64062;DHT22;50308;47.438;-1.528;2023-07-13T07:51:41;20.30;76.90
64062;DHT22;50308;47.438;-1.528;2023-07-13T07:54:07;20.30;76.90
64062;DHT22;50308;47.438;-1.528;2023-07-13T07:56:33;20.30;76.60
64062;DHT22;50308;47.438;-1.528;2023-07-13T07:58:58;20.40;76.90
64062;DHT22;50308;47.438;-1.528;2023-07-13T08:01:24;20.40;76.30
64062;DHT22;50308;47.438;-1.528;2023-07-13T08:03:50;20.40;75.90
64062;DHT22;50308;47.438;-1.528;2023-07-13T08:06:16;20.40;74.60
64062;DHT22;50308;47.438;-1.528;2023-07-13T08:08:45;20.40;75.80
64062;DHT22;50308;47.438;-1.528;2023-07-13T08:11:10;20.40;74.70
64062;DHT22;50308;47.438;-1.528;2023-07-13T08:13:37;20.40;76.00
64062;DHT22;50308;47.438;-1.528;2023-07-13T08:16:05;20.40;75.90
64062;DHT22;50308;47.438;-1.528;2023-07-13T08:18:31;20.50;75.10
64062;DHT22;50308;47.438;-1.528;2023-07-13T08:20:57;20.50;75.40
64062;DHT22;50308;47.438;-1.528;2023-07-13T08:23:24;20.50;74.90
64062;DHT22;50308;47.438;-1.528;2023-07-13T08:25:51;20.50;75.50
64062;DHT22;50308;47.438;-1.528;2023-07-13T08:28:18;20.50;74.50
64062;DHT22;50308;47.438;-1.528;2023-07-13T08:30:44;20.50;75.80
64062;DHT22;50308;47.438;-1.528;2023-07-13T08:33:09;20.50;75.70
64062;DHT22;50308;47.438;-1.528;2023-07-13T08:35:35;20.50;75.00
64062;DHT22;50308;47.438;-1.528;2023-07-13T08:38:01;20.50;75.90
64062;DHT22;50308;47.438;-1.528;2023-07-13T08:40:27;20.50;74.30
64062;DHT22;50308;47.438;-1.528;2023-07-13T08:42:59;20.50;74.10
64062;DHT22;50308;47.438;-1.528;2023-07-13T08:45:45;20.50;73.40
64062;DHT22;50308;47.438;-1.528;2023-07-13T08:50:51;20.60;72.90
64062;DHT22;50308;47.438;-1.528;2023-07-13T08:53:17;20.60;73.20
64062;DHT22;50308;47.438;-1.528;2023-07-13T08:55:44;20.60;74.10
64062;DHT22;50308;47.438;-1.528;2023-07-13T08:58:15;20.60;74.90
64062;DHT22;50308;47.438;-1.528;2023-07-13T09:00:56;20.60;74.60
64062;DHT22;50308;47.438;-1.528;2023-07-13T09:03:26;20.60;74.60
64062;DHT22;50308;47.438;-1.528;2023-07-13T09:05:57;20.60;73.30
64062;DHT22;50308;47.438;-1.528;2023-07-13T09:08:42;20.60;74.60
64062;DHT22;50308;47.438;-1.528;2023-07-13T09:13:56;20.60;72.60
64062;DHT22;50308;47.438;-1.528;2023-07-13T09:16:23;20.70;72.80
64062;DHT22;50308;47.438;-1.528;2023-07-13T09:18:52;20.70;72.90
64062;DHT22;50308;47.438;-1.528;2023-07-13T09:21:31;20.70;72.70
64062;DHT22;50308;47.438;-1.528;2023-07-13T09:24:22;20.70;72.30
64062;DHT22;50308;47.438;-1.528;2023-07-13T09:26:52;20.70;72.50
64062;DHT22;50308;47.438;-1.528;2023-07-13T09:29:27;20.80;72.00
64062;DHT22;50308;47.438;-1.528;2023-07-13T09:31:57;20.70;71.90
64062;DHT22;50308;47.438;-1.528;2023-07-13T09:34:25;20.70;71.90
64062;DHT22;50308;47.438;-1.528;2023-07-13T09:36:51;20.80;72.00
64062;DHT22;50308;47.438;-1.528;2023-07-13T09:39:37;20.70;71.60
64062;DHT22;50308;47.438;-1.528;2023-07-13T09:42:18;20.80;71.60
64062;DHT22;50308;47.438;-1.528;2023-07-13T09:47:19;20.80;71.10
64062;DHT22;50308;47.438;-1.528;2023-07-13T09:49:46;20.80;71.00
64062;DHT22;50308;47.438;-1.528;2023-07-13T09:52:15;20.80;71.10
64062;DHT22;50308;47.438;-1.528;2023-07-13T09:54:48;20.80;70.80
64062;DHT22;50308;47.438;-1.528;2023-07-13T09:57:24;20.80;70.60
64062;DHT22;50308;47.438;-1.528;2023-07-13T09:59:53;20.80;70.60
64062;DHT22;50308;47.438;-1.528;2023-07-13T10:07:22;20.80;70.40
64062;DHT22;50308;47.438;-1.528;2023-07-13T10:09:54;20.80;70.00
64062;DHT22;50308;47.438;-1.528;2023-07-13T10:12:21;20.80;70.00
64062;DHT22;50308;47.438;-1.528;2023-07-13T10:14:52;20.90;69.70
64062;DHT22;50308;47.438;-1.528;2023-07-13T10:17:29;20.80;69.40
64062;DHT22;50308;47.438;-1.528;2023-07-13T10:20:04;20.90;69.10
64062;DHT22;50308;47.438;-1.528;2023-07-13T10:22:47;20.90;69.40
64062;DHT22;50308;47.438;-1.528;2023-07-13T10:25:18;20.90;69.40
64062;DHT22;50308;47.438;-1.528;2023-07-13T10:27:45;20.90;69.50
64062;DHT22;50308;47.438;-1.528;2023-07-13T10:30:20;20.90;69.40
64062;DHT22;50308;47.438;-1.528;2023-07-13T10:32:49;20.90;69.30
64062;DHT22;50308;47.438;-1.528;2023-07-13T10:35:18;20.90;69.00
64062;DHT22;50308;47.438;-1.528;2023-07-13T10:38:01;20.90;68.90
64062;DHT22;50308;47.438;-1.528;2023-07-13T10:40:58;20.90;68.70
64062;DHT22;50308;47.438;-1.528;2023-07-13T10:43:37;20.90;68.20
64062;DHT22;50308;47.438;-1.528;2023-07-13T10:46:08;20.90;68.60
64062;DHT22;50308;47.438;-1.528;2023-07-13T10:48:36;20.90;68.50
64062;DHT22;50308;47.438;-1.528;2023-07-13T10:51:04;20.90;68.40
64062;DHT22;50308;47.438;-1.528;2023-07-13T10:53:37;20.90;68.40
64062;DHT22;50308;47.438;-1.528;2023-07-13T10:56:29;20.90;68.30
64062;DHT22;50308;47.438;-1.528;2023-07-13T10:59:18;20.90;68.10
64062;DHT22;50308;47.438;-1.528;2023-07-13T11:01:58;21.00;68.10
64062;DHT22;50308;47.438;-1.528;2023-07-13T11:04:27;21.00;67.90
64062;DHT22;50308;47.438;-1.528;2023-07-13T11:07:00;21.00;68.20
64062;DHT22;50308;47.438;-1.528;2023-07-13T11:09:40;21.00;68.50
64062;DHT22;50308;47.438;-1.528;2023-07-13T11:17:34;21.00;67.90
64062;DHT22;50308;47.438;-1.528;2023-07-13T11:20:21;21.00;68.20
64062;DHT22;50308;47.438;-1.528;2023-07-13T11:23:35;21.00;67.90
64062;DHT22;50308;47.438;-1.528;2023-07-13T11:25:43;21.00;68.30
64062;DHT22;50308;47.438;-1.528;2023-07-13T11:33:20;21.00;67.40
64062;DHT22;50308;47.438;-1.528;2023-07-13T11:35:49;21.10;68.00
64062;DHT22;50308;47.438;-1.528;2023-07-13T11:41:21;21.00;67.40
64062;DHT22;50308;47.438;-1.528;2023-07-13T11:43:53;21.10;67.20
64062;DHT22;50308;47.438;-1.528;2023-07-13T11:46:25;21.10;66.80
64062;DHT22;50308;47.438;-1.528;2023-07-13T11:48:52;21.10;66.70
64062;DHT22;50308;47.438;-1.528;2023-07-13T11:51:30;21.10;67.30
64062;DHT22;50308;47.438;-1.528;2023-07-13T11:54:01;21.10;67.60
64062;DHT22;50308;47.438;-1.528;2023-07-13T11:56:28;21.10;66.00
64062;DHT22;50308;47.438;-1.528;2023-07-13T11:58:56;21.10;66.60
64062;DHT22;50308;47.438;-1.528;2023-07-13T12:01:25;21.10;66.60
64062;DHT22;50308;47.438;-1.528;2023-07-13T12:03:53;21.10;66.70
64062;DHT22;50308;47.438;-1.528;2023-07-13T12:06:28;21.10;66.00
64062;DHT22;50308;47.438;-1.528;2023-07-13T12:08:59;21.20;64.80
64062;DHT22;50308;47.438;-1.528;2023-07-13T12:11:26;21.20;66.30
64062;DHT22;50308;47.438;-1.528;2023-07-13T12:13:52;21.20;65.40
64062;DHT22;50308;47.438;-1.528;2023-07-13T12:16:26;21.20;65.40
64062;DHT22;50308;47.438;-1.528;2023-07-13T12:18:53;21.20;65.20
64062;DHT22;50308;47.438;-1.528;2023-07-13T12:21:26;21.20;64.60
64062;DHT22;50308;47.438;-1.528;2023-07-13T12:23:53;21.20;65.20
64062;DHT22;50308;47.438;-1.528;2023-07-13T12:26:19;21.10;65.60
64062;DHT22;50308;47.438;-1.528;2023-07-13T12:28:52;21.20;65.00
64062;DHT22;50308;47.438;-1.528;2023-07-13T12:31:57;21.20;64.80
64062;DHT22;50308;47.438;-1.528;2023-07-13T12:34:24;21.10;65.10
64062;DHT22;50308;47.438;-1.528;2023-07-13T12:36:59;21.20;65.40
64062;DHT22;50308;47.438;-1.528;2023-07-13T12:42:22;21.10;65.80
64062;DHT22;50308;47.438;-1.528;2023-07-13T12:47:23;21.20;66.30
64062;DHT22;50308;47.438;-1.528;2023-07-13T12:49:57;21.10;66.10
64062;DHT22;50308;47.438;-1.528;2023-07-13T12:52:29;21.20;66.00
64062;DHT22;50308;47.438;-1.528;2023-07-13T12:57:59;21.20;64.50
64062;DHT22;50308;47.438;-1.528;2023-07-13T13:00:31;21.30;64.60
64062;DHT22;50308;47.438;-1.528;2023-07-13T13:03:26;21.20;65.60
64062;DHT22;50308;47.438;-1.528;2023-07-13T13:06:03;21.20;65.10
64062;DHT22;50308;47.438;-1.528;2023-07-13T13:08:33;21.30;65.30
64062;DHT22;50308;47.438;-1.528;2023-07-13T13:11:01;21.20;65.70
64062;DHT22;50308;47.438;-1.528;2023-07-13T13:13:27;21.20;65.00
64062;DHT22;50308;47.438;-1.528;2023-07-13T13:15:53;21.20;65.00
64062;DHT22;50308;47.438;-1.528;2023-07-13T13:18:21;21.30;64.50
64062;DHT22;50308;47.438;-1.528;2023-07-13T13:20:48;21.30;65.60
64062;DHT22;50308;47.438;-1.528;2023-07-13T13:23:17;21.30;64.30
64062;DHT22;50308;47.438;-1.528;2023-07-13T13:25:48;21.30;64.80
64062;DHT22;50308;47.438;-1.528;2023-07-13T13:28:17;21.30;65.60
64062;DHT22;50308;47.438;-1.528;2023-07-13T13:30:45;21.20;65.60
64062;DHT22;50308;47.438;-1.528;2023-07-13T13:33:13;21.20;65.90
64062;DHT22;50308;47.438;-1.528;2023-07-13T13:35:40;21.30;65.10
64062;DHT22;50308;47.438;-1.528;2023-07-13T13:38:19;21.30;65.50
64062;DHT22;50308;47.438;-1.528;2023-07-13T13:40:46;21.30;65.40
64062;DHT22;50308;47.438;-1.528;2023-07-13T13:43:17;21.30;65.40
64062;DHT22;50308;47.438;-1.528;2023-07-13T13:45:44;21.30;64.90
64062;DHT22;50308;47.438;-1.528;2023-07-13T13:48:16;21.30;63.90
64062;DHT22;50308;47.438;-1.528;2023-07-13T13:50:43;21.30;64.90
64062;DHT22;50308;47.438;-1.528;2023-07-13T13:53:13;21.30;65.10
64062;DHT22;50308;47.438;-1.528;2023-07-13T13:55:39;21.30;65.00
64062;DHT22;50308;47.438;-1.528;2023-07-13T13:58:09;21.40;64.20
64062;DHT22;50308;47.438;-1.528;2023-07-13T14:00:37;21.40;64.60
64062;DHT22;50308;47.438;-1.528;2023-07-13T14:03:03;21.40;63.40
64062;DHT22;50308;47.438;-1.528;2023-07-13T14:05:30;21.40;63.40
64062;DHT22;50308;47.438;-1.528;2023-07-13T14:07:56;21.50;64.30
64062;DHT22;50308;47.438;-1.528;2023-07-13T14:10:22;21.40;64.40
64062;DHT22;50308;47.438;-1.528;2023-07-13T14:12:52;21.40;64.60
64062;DHT22;50308;47.438;-1.528;2023-07-13T14:15:26;21.40;63.80
64062;DHT22;50308;47.438;-1.528;2023-07-13T14:17:53;21.40;64.90
64062;DHT22;50308;47.438;-1.528;2023-07-13T14:20:21;21.40;63.90
64062;DHT22;50308;47.438;-1.528;2023-07-13T14:22:50;21.40;64.50
64062;DHT22;50308;47.438;-1.528;2023-07-13T14:25:17;21.30;64.90
64062;DHT22;50308;47.438;-1.528;2023-07-13T14:27:45;21.30;64.80
64062;DHT22;50308;47.438;-1.528;2023-07-13T14:30:17;21.40;64.90
64062;DHT22;50308;47.438;-1.528;2023-07-13T14:32:44;21.40;65.10
64062;DHT22;50308;47.438;-1.528;2023-07-13T14:35:14;21.40;64.30
64062;DHT22;50308;47.438;-1.528;2023-07-13T14:37:42;21.40;64.20
64062;DHT22;50308;47.438;-1.528;2023-07-13T14:42:34;21.50;64.60
64062;DHT22;50308;47.438;-1.528;2023-07-13T14:45:00;21.40;64.30
64062;DHT22;50308;47.438;-1.528;2023-07-13T14:47:26;21.40;64.70
64062;DHT22;50308;47.438;-1.528;2023-07-13T14:49:52;21.40;65.10
64062;DHT22;50308;47.438;-1.528;2023-07-13T14:52:20;21.50;64.90
64062;DHT22;50308;47.438;-1.528;2023-07-13T14:54:47;21.40;65.00
64062;DHT22;50308;47.438;-1.528;2023-07-13T14:57:15;21.50;64.20
64062;DHT22;50308;47.438;-1.528;2023-07-13T14:59:42;21.50;63.90
64062;DHT22;50308;47.438;-1.528;2023-07-13T15:02:35;21.50;64.50
64062;DHT22;50308;47.438;-1.528;2023-07-13T15:05:17;21.50;64.50
64062;DHT22;50308;47.438;-1.528;2023-07-13T15:07:43;21.50;64.70
64062;DHT22;50308;47.438;-1.528;2023-07-13T15:10:24;21.50;64.60
64062;DHT22;50308;47.438;-1.528;2023-07-13T15:12:57;21.50;64.90
64062;DHT22;50308;47.438;-1.528;2023-07-13T15:15:24;21.50;64.90
64062;DHT22;50308;47.438;-1.528;2023-07-13T15:17:50;21.50;64.80
64062;DHT22;50308;47.438;-1.528;2023-07-13T15:20:34;21.50;65.00
64062;DHT22;50308;47.438;-1.528;2023-07-13T15:23:01;21.50;65.10
64062;DHT22;50308;47.438;-1.528;2023-07-13T15:25:29;21.50;65.00
64062;DHT22;50308;47.438;-1.528;2023-07-13T15:27:57;21.60;64.40
64062;DHT22;50308;47.438;-1.528;2023-07-13T15:30:29;21.60;64.60
64062;DHT22;50308;47.438;-1.528;2023-07-13T15:32:57;21.60;64.50
64062;DHT22;50308;47.438;-1.528;2023-07-13T15:35:26;21.60;64.70
64062;DHT22;50308;47.438;-1.528;2023-07-13T15:37:53;21.50;64.90
64062;DHT22;50308;47.438;-1.528;2023-07-13T15:40:20;21.50;64.30
64062;DHT22;50308;47.438;-1.528;2023-07-13T15:42:50;21.60;64.80
64062;DHT22;50308;47.438;-1.528;2023-07-13T15:47:43;21.60;64.40
64062;DHT22;50308;47.438;-1.528;2023-07-13T15:50:18;21.60;64.20
64062;DHT22;50308;47.438;-1.528;2023-07-13T15:52:47;21.60;64.10
64062;DHT22;50308;47.438;-1.528;2023-07-13T15:55:14;21.60;64.30
64062;DHT22;50308;47.438;-1.528;2023-07-13T15:57:47;21.60;64.80
64062;DHT22;50308;47.438;-1.528;2023-07-13T16:00:26;21.60;64.60
64062;DHT22;50308;47.438;-1.528;2023-07-13T16:02:53;21.60;64.80
64062;DHT22;50308;47.438;-1.528;2023-07-13T16:05:20;21.60;64.70